sensor_id;sensor_type;location;lat;lon;timestamp;P1;durP1;ratioP1;P2;durP2;ratioP2
43678;SDS011;29279;50.858;4.392;2023-04-08T00:01:06;26.23;;;7.38;;
43678;SDS011;29279;50.858;4.392;2023-04-08T00:03:32;34.50;;;8.70;;
43678;SDS011;29279;50.858;4.392;2023-04-08T00:05:57;32.65;;;9.82;;
43678;SDS011;29279;50.858;4.392;2023-04-08T00:08:25;31.80;;;8.73;;
43678;SDS011;29279;50.858;4.392;2023-04-08T00:10:50;24.05;;;8.75;;
43678;SDS011;29279;50.858;4.392;2023-04-08T00:13:16;36.38;;;9.18;;
43678;SDS011;29279;50.858;4.392;2023-04-08T00:15:42;30.17;;;8.77;;
43678;SDS011;29279;50.858;4.392;2023-04-08T00:18:07;33.15;;;9.40;;
43678;SDS011;29279;50.858;4.392;2023-04-08T00:20:33;35.60;;;9.52;;
43678;SDS011;29279;50.858;4.392;2023-04-08T00:22:59;32.05;;;9.57;;
43678;SDS011;29279;50.858;4.392;2023-04-08T00:25:24;34.13;;;9.20;;
43678;SDS011;29279;50.858;4.392;2023-04-08T00:27:50;34.13;;;9.90;;
43678;SDS011;29279;50.858;4.392;2023-04-08T00:30:16;35.85;;;8.50;;
43678;SDS011;29279;50.858;4.392;2023-04-08T00:32:42;31.90;;;9.20;;
43678;SDS011;29279;50.858;4.392;2023-04-08T00:35:07;27.30;;;9.35;;
43678;SDS011;29279;50.858;4.392;2023-04-08T00:37:33;33.53;;;9.85;;
43678;SDS011;29279;50.858;4.392;2023-04-08T00:39:59;37.95;;;9.32;;
43678;SDS011;29279;50.858;4.392;2023-04-08T00:42:25;29.83;;;8.98;;
43678;SDS011;29279;50.858;4.392;2023-04-08T00:44:50;31.85;;;10.18;;
43678;SDS011;29279;50.858;4.392;2023-04-08T00:47:16;35.58;;;10.95;;
43678;SDS011;29279;50.858;4.392;2023-04-08T00:49:42;28.38;;;10.00;;
43678;SDS011;29279;50.858;4.392;2023-04-08T00:52:08;31.05;;;9.50;;
43678;SDS011;29279;50.858;4.392;2023-04-08T00:54:35;37.10;;;10.07;;
43678;SDS011;29279;50.858;4.392;2023-04-08T00:57:02;32.47;;;9.52;;
43678;SDS011;29279;50.858;4.392;2023-04-08T00:59:29;31.95;;;9.18;;
43678;SDS011;29279;50.858;4.392;2023-04-08T01:01:56;33.83;;;9.35;;
43678;SDS011;29279;50.858;4.392;2023-04-08T01:05:03;28.52;;;9.52;;
43678;SDS011;29279;50.858;4.392;2023-04-08T01:10:01;35.65;;;9.65;;
43678;SDS011;29279;50.858;4.392;2023-04-08T01:12:36;36.33;;;9.38;;
43678;SDS011;29279;50.858;4.392;2023-04-08T01:15:07;36.83;;;10.27;;
43678;SDS011;29279;50.858;4.392;2023-04-08T01:17:36;30.25;;;9.73;;
43678;SDS011;29279;50.858;4.392;2023-04-08T01:20:03;37.05;;;9.73;;
43678;SDS011;29279;50.858;4.392;2023-04-08T01:25:16;27.10;;;9.43;;
43678;SDS011;29279;50.858;4.392;2023-04-08T01:27:46;25.42;;;8.82;;
43678;SDS011;29279;50.858;4.392;2023-04-08T01:30:13;27.63;;;9.13;;
43678;SDS011;29279;50.858;4.392;2023-04-08T01:32:41;29.42;;;10.55;;
43678;SDS011;29279;50.858;4.392;2023-04-08T01:35:08;32.65;;;11.57;;
43678;SDS011;29279;50.858;4.392;2023-04-08T01:37:35;35.65;;;10.70;;
43678;SDS011;29279;50.858;4.392;2023-04-08T01:40:04;34.90;;;10.43;;
43678;SDS011;29279;50.858;4.392;2023-04-08T01:42:33;31.38;;;10.55;;
43678;SDS011;29279;50.858;4.392;2023-04-08T01:45:00;33.10;;;10.38;;
43678;SDS011;29279;50.858;4.392;2023-04-08T01:47:27;37.53;;;10.57;;
43678;SDS011;29279;50.858;4.392;2023-04-08T01:49:54;31.63;;;10.45;;
43678;SDS011;29279;50.858;4.392;2023-04-08T01:52:23;32.55;;;10.98;;
43678;SDS011;29279;50.858;4.392;2023-04-08T01:54:50;47.30;;;11.95;;
43678;SDS011;29279;50.858;4.392;2023-04-08T01:57:19;29.27;;;10.35;;
43678;SDS011;29279;50.858;4.392;2023-04-08T01:59:50;34.42;;;11.15;;
43678;SDS011;29279;50.858;4.392;2023-04-08T02:02:19;33.40;;;11.18;;
43678;SDS011;29279;50.858;4.392;2023-04-08T02:04:46;28.05;;;10.77;;
43678;SDS011;29279;50.858;4.392;2023-04-08T02:07:12;33.55;;;11.60;;
43678;SDS011;29279;50.858;4.392;2023-04-08T02:09:39;34.03;;;12.32;;
43678;SDS011;29279;50.858;4.392;2023-04-08T02:12:05;28.60;;;11.68;;
43678;SDS011;29279;50.858;4.392;2023-04-08T02:14:31;31.33;;;11.93;;
43678;SDS011;29279;50.858;4.392;2023-04-08T02:19:35;35.15;;;12.82;;
43678;SDS011;29279;50.858;4.392;2023-04-08T02:22:18;41.85;;;13.43;;
43678;SDS011;29279;50.858;4.392;2023-04-08T02:24:52;35.87;;;13.90;;
43678;SDS011;29279;50.858;4.392;2023-04-08T02:27:18;38.30;;;13.50;;
43678;SDS011;29279;50.858;4.392;2023-04-08T02:29:45;42.67;;;13.27;;
43678;SDS011;29279;50.858;4.392;2023-04-08T02:32:12;30.17;;;13.93;;
43678;SDS011;29279;50.858;4.392;2023-04-08T02:34:40;26.88;;;12.27;;
43678;SDS011;29279;50.858;4.392;2023-04-08T02:37:07;40.40;;;13.02;;
43678;SDS011;29279;50.858;4.392;2023-04-08T02:39:33;35.60;;;13.75;;
43678;SDS011;29279;50.858;4.392;2023-04-08T02:41:59;30.65;;;13.05;;
43678;SDS011;29279;50.858;4.392;2023-04-08T02:44:25;28.95;;;13.25;;
43678;SDS011;29279;50.858;4.392;2023-04-08T02:46:51;35.45;;;14.30;;
43678;SDS011;29279;50.858;4.392;2023-04-08T02:49:16;38.25;;;13.73;;
43678;SDS011;29279;50.858;4.392;2023-04-08T02:51:42;35.63;;;14.32;;
43678;SDS011;29279;50.858;4.392;2023-04-08T02:54:07;29.90;;;13.30;;
43678;SDS011;29279;50.858;4.392;2023-04-08T02:56:33;28.40;;;12.90;;
43678;SDS011;29279;50.858;4.392;2023-04-08T02:58:59;32.90;;;14.15;;
43678;SDS011;29279;50.858;4.392;2023-04-08T03:01:25;37.33;;;14.45;;
43678;SDS011;29279;50.858;4.392;2023-04-08T03:03:50;30.52;;;14.20;;
43678;SDS011;29279;50.858;4.392;2023-04-08T03:06:17;42.22;;;15.32;;
43678;SDS011;29279;50.858;4.392;2023-04-08T03:08:42;35.67;;;15.88;;
43678;SDS011;29279;50.858;4.392;2023-04-08T03:11:08;34.85;;;15.10;;
43678;SDS011;29279;50.858;4.392;2023-04-08T03:13:34;26.38;;;12.93;;
43678;SDS011;29279;50.858;4.392;2023-04-08T03:16:00;37.50;;;14.68;;
43678;SDS011;29279;50.858;4.392;2023-04-08T03:18:25;45.25;;;17.00;;
43678;SDS011;29279;50.858;4.392;2023-04-08T03:20:51;36.25;;;16.75;;
43678;SDS011;29279;50.858;4.392;2023-04-08T03:23:17;38.97;;;15.98;;
43678;SDS011;29279;50.858;4.392;2023-04-08T03:25:42;38.33;;;15.80;;
43678;SDS011;29279;50.858;4.392;2023-04-08T03:28:08;38.45;;;15.60;;
43678;SDS011;29279;50.858;4.392;2023-04-08T03:30:34;34.90;;;17.13;;
43678;SDS011;29279;50.858;4.392;2023-04-08T03:33:00;36.67;;;17.30;;
43678;SDS011;29279;50.858;4.392;2023-04-08T03:35:27;47.33;;;19.83;;
43678;SDS011;29279;50.858;4.392;2023-04-08T03:37:53;36.92;;;17.83;;
43678;SDS011;29279;50.858;4.392;2023-04-08T03:40:19;36.53;;;19.70;;
43678;SDS011;29279;50.858;4.392;2023-04-08T03:42:45;45.60;;;18.90;;
43678;SDS011;29279;50.858;4.392;2023-04-08T03:45:11;41.17;;;19.92;;
43678;SDS011;29279;50.858;4.392;2023-04-08T03:47:36;37.80;;;18.52;;
43678;SDS011;29279;50.858;4.392;2023-04-08T03:50:02;45.03;;;20.40;;
43678;SDS011;29279;50.858;4.392;2023-04-08T03:52:28;46.72;;;20.35;;
43678;SDS011;29279;50.858;4.392;2023-04-08T03:54:54;47.97;;;21.77;;
43678;SDS011;29279;50.858;4.392;2023-04-08T03:57:19;50.25;;;22.20;;
43678;SDS011;29279;50.858;4.392;2023-04-08T03:59:45;47.25;;;20.40;;
43678;SDS011;29279;50.858;4.392;2023-04-08T04:02:11;48.28;;;20.75;;
43678;SDS011;29279;50.858;4.392;2023-04-08T04:04:37;60.22;;;23.02;;
43678;SDS011;29279;50.858;4.392;2023-04-08T04:07:02;47.13;;;21.10;;
43678;SDS011;29279;50.858;4.392;2023-04-08T04:09:28;52.67;;;21.75;;
43678;SDS011;29279;50.858;4.392;2023-04-08T04:11:54;48.40;;;20.25;;
43678;SDS011;29279;50.858;4.392;2023-04-08T04:14:19;49.45;;;22.23;;
43678;SDS011;29279;50.858;4.392;2023-04-08T04:16:45;51.35;;;22.23;;
43678;SDS011;29279;50.858;4.392;2023-04-08T04:19:11;52.10;;;21.23;;
43678;SDS011;29279;50.858;4.392;2023-04-08T04:21:37;60.85;;;23.75;;
43678;SDS011;29279;50.858;4.392;2023-04-08T04:24:02;52.15;;;22.60;;
43678;SDS011;29279;50.858;4.392;2023-04-08T04:26:28;57.17;;;22.02;;
43678;SDS011;29279;50.858;4.392;2023-04-08T04:28:54;56.75;;;22.75;;
43678;SDS011;29279;50.858;4.392;2023-04-08T04:31:20;59.22;;;23.55;;
43678;SDS011;29279;50.858;4.392;2023-04-08T04:33:47;49.95;;;22.33;;
43678;SDS011;29279;50.858;4.392;2023-04-08T04:36:14;51.88;;;24.17;;
43678;SDS011;29279;50.858;4.392;2023-04-08T04:38:40;52.95;;;22.48;;
43678;SDS011;29279;50.858;4.392;2023-04-08T04:41:07;53.67;;;23.17;;
43678;SDS011;29279;50.858;4.392;2023-04-08T04:43:32;45.60;;;22.65;;
43678;SDS011;29279;50.858;4.392;2023-04-08T04:45:58;47.67;;;22.50;;
43678;SDS011;29279;50.858;4.392;2023-04-08T04:48:24;56.08;;;23.15;;
43678;SDS011;29279;50.858;4.392;2023-04-08T04:50:57;48.78;;;22.27;;
43678;SDS011;29279;50.858;4.392;2023-04-08T04:53:24;51.95;;;22.70;;
43678;SDS011;29279;50.858;4.392;2023-04-08T04:55:50;51.75;;;22.75;;
43678;SDS011;29279;50.858;4.392;2023-04-08T04:58:16;54.13;;;21.65;;
43678;SDS011;29279;50.858;4.392;2023-04-08T05:00:42;52.80;;;22.63;;
43678;SDS011;29279;50.858;4.392;2023-04-08T05:03:08;51.75;;;21.70;;
43678;SDS011;29279;50.858;4.392;2023-04-08T05:05:34;55.72;;;23.10;;
43678;SDS011;29279;50.858;4.392;2023-04-08T05:08:00;70.53;;;24.90;;
43678;SDS011;29279;50.858;4.392;2023-04-08T05:10:26;50.92;;;22.35;;
43678;SDS011;29279;50.858;4.392;2023-04-08T05:12:51;50.17;;;22.65;;
43678;SDS011;29279;50.858;4.392;2023-04-08T05:15:17;69.20;;;25.27;;
43678;SDS011;29279;50.858;4.392;2023-04-08T05:17:43;64.07;;;24.83;;
43678;SDS011;29279;50.858;4.392;2023-04-08T05:20:08;48.58;;;23.60;;
43678;SDS011;29279;50.858;4.392;2023-04-08T05:22:34;57.80;;;23.80;;
43678;SDS011;29279;50.858;4.392;2023-04-08T05:25:01;53.70;;;23.70;;
43678;SDS011;29279;50.858;4.392;2023-04-08T05:27:26;51.63;;;23.52;;
43678;SDS011;29279;50.858;4.392;2023-04-08T05:29:52;57.38;;;23.80;;
43678;SDS011;29279;50.858;4.392;2023-04-08T05:32:17;53.95;;;22.70;;
43678;SDS011;29279;50.858;4.392;2023-04-08T05:34:43;52.85;;;24.02;;
43678;SDS011;29279;50.858;4.392;2023-04-08T05:37:09;44.17;;;22.80;;
43678;SDS011;29279;50.858;4.392;2023-04-08T05:39:35;51.47;;;23.63;;
43678;SDS011;29279;50.858;4.392;2023-04-08T05:42:01;61.15;;;24.80;;
43678;SDS011;29279;50.858;4.392;2023-04-08T05:44:27;59.75;;;25.40;;
43678;SDS011;29279;50.858;4.392;2023-04-08T05:46:53;55.03;;;25.75;;
43678;SDS011;29279;50.858;4.392;2023-04-08T05:49:19;55.70;;;24.23;;
43678;SDS011;29279;50.858;4.392;2023-04-08T05:51:45;55.35;;;25.95;;
43678;SDS011;29279;50.858;4.392;2023-04-08T05:54:11;58.45;;;23.10;;
43678;SDS011;29279;50.858;4.392;2023-04-08T05:56:37;49.85;;;23.80;;
43678;SDS011;29279;50.858;4.392;2023-04-08T05:59:02;57.78;;;22.60;;
43678;SDS011;29279;50.858;4.392;2023-04-08T06:01:28;44.47;;;22.33;;
43678;SDS011;29279;50.858;4.392;2023-04-08T06:03:54;52.30;;;23.88;;
43678;SDS011;29279;50.858;4.392;2023-04-08T06:06:22;61.78;;;24.30;;
43678;SDS011;29279;50.858;4.392;2023-04-08T06:08:49;46.30;;;22.75;;
43678;SDS011;29279;50.858;4.392;2023-04-08T06:11:15;52.38;;;22.48;;
43678;SDS011;29279;50.858;4.392;2023-04-08T06:13:41;56.42;;;22.48;;
43678;SDS011;29279;50.858;4.392;2023-04-08T06:16:13;52.13;;;22.92;;
43678;SDS011;29279;50.858;4.392;2023-04-08T06:18:41;49.30;;;22.90;;
43678;SDS011;29279;50.858;4.392;2023-04-08T06:21:07;53.03;;;22.83;;
43678;SDS011;29279;50.858;4.392;2023-04-08T06:23:33;51.33;;;21.95;;
43678;SDS011;29279;50.858;4.392;2023-04-08T06:25:59;46.58;;;23.00;;
43678;SDS011;29279;50.858;4.392;2023-04-08T06:28:25;52.78;;;22.60;;
43678;SDS011;29279;50.858;4.392;2023-04-08T06:30:52;57.13;;;22.67;;
43678;SDS011;29279;50.858;4.392;2023-04-08T06:33:18;47.65;;;22.67;;
43678;SDS011;29279;50.858;4.392;2023-04-08T06:35:44;46.63;;;22.63;;
43678;SDS011;29279;50.858;4.392;2023-04-08T06:38:10;48.97;;;23.45;;
43678;SDS011;29279;50.858;4.392;2023-04-08T06:40:37;43.90;;;22.83;;
43678;SDS011;29279;50.858;4.392;2023-04-08T06:43:03;52.28;;;23.70;;
43678;SDS011;29279;50.858;4.392;2023-04-08T06:45:31;47.20;;;23.42;;
43678;SDS011;29279;50.858;4.392;2023-04-08T06:47:56;48.13;;;23.50;;
43678;SDS011;29279;50.858;4.392;2023-04-08T06:50:22;39.30;;;22.35;;
43678;SDS011;29279;50.858;4.392;2023-04-08T06:52:48;52.13;;;23.10;;
43678;SDS011;29279;50.858;4.392;2023-04-08T06:55:13;51.00;;;23.10;;
43678;SDS011;29279;50.858;4.392;2023-04-08T06:57:39;50.33;;;23.63;;
43678;SDS011;29279;50.858;4.392;2023-04-08T07:00:05;49.63;;;23.77;;
43678;SDS011;29279;50.858;4.392;2023-04-08T07:02:31;45.95;;;22.23;;
43678;SDS011;29279;50.858;4.392;2023-04-08T07:04:57;39.28;;;20.73;;
43678;SDS011;29279;50.858;4.392;2023-04-08T07:07:23;45.60;;;20.15;;
43678;SDS011;29279;50.858;4.392;2023-04-08T07:09:49;40.25;;;19.70;;
43678;SDS011;29279;50.858;4.392;2023-04-08T07:12:15;44.08;;;21.13;;
43678;SDS011;29279;50.858;4.392;2023-04-08T07:14:41;34.13;;;18.80;;
43678;SDS011;29279;50.858;4.392;2023-04-08T07:17:06;29.58;;;16.55;;
43678;SDS011;29279;50.858;4.392;2023-04-08T07:19:32;36.72;;;18.98;;
43678;SDS011;29279;50.858;4.392;2023-04-08T07:21:57;27.27;;;17.00;;
43678;SDS011;29279;50.858;4.392;2023-04-08T07:24:23;37.88;;;17.35;;
43678;SDS011;29279;50.858;4.392;2023-04-08T07:26:49;35.70;;;16.92;;
43678;SDS011;29279;50.858;4.392;2023-04-08T07:29:15;31.10;;;16.70;;
43678;SDS011;29279;50.858;4.392;2023-04-08T07:31:44;29.63;;;16.38;;
43678;SDS011;29279;50.858;4.392;2023-04-08T07:34:09;32.97;;;17.75;;
43678;SDS011;29279;50.858;4.392;2023-04-08T07:36:36;28.90;;;16.77;;
43678;SDS011;29279;50.858;4.392;2023-04-08T07:39:02;29.45;;;15.90;;
43678;SDS011;29279;50.858;4.392;2023-04-08T07:41:28;29.30;;;15.88;;
43678;SDS011;29279;50.858;4.392;2023-04-08T07:43:54;35.67;;;18.90;;
43678;SDS011;29279;50.858;4.392;2023-04-08T07:46:20;26.75;;;16.45;;
43678;SDS011;29279;50.858;4.392;2023-04-08T07:48:45;30.98;;;15.95;;
43678;SDS011;29279;50.858;4.392;2023-04-08T07:51:11;29.50;;;15.23;;
43678;SDS011;29279;50.858;4.392;2023-04-08T07:54:14;36.97;;;15.90;;
43678;SDS011;29279;50.858;4.392;2023-04-08T07:56:41;26.05;;;15.15;;
43678;SDS011;29279;50.858;4.392;2023-04-08T07:59:09;34.05;;;15.68;;
43678;SDS011;29279;50.858;4.392;2023-04-08T08:01:35;34.17;;;16.85;;
43678;SDS011;29279;50.858;4.392;2023-04-08T08:04:01;25.75;;;14.48;;
43678;SDS011;29279;50.858;4.392;2023-04-08T08:06:27;33.15;;;17.17;;
43678;SDS011;29279;50.858;4.392;2023-04-08T08:08:53;26.45;;;15.88;;
43678;SDS011;29279;50.858;4.392;2023-04-08T08:11:20;32.13;;;16.10;;
43678;SDS011;29279;50.858;4.392;2023-04-08T08:13:46;31.20;;;15.43;;
43678;SDS011;29279;50.858;4.392;2023-04-08T08:16:12;35.15;;;18.55;;
43678;SDS011;29279;50.858;4.392;2023-04-08T08:18:38;30.33;;;17.60;;
43678;SDS011;29279;50.858;4.392;2023-04-08T08:21:05;27.73;;;16.42;;
43678;SDS011;29279;50.858;4.392;2023-04-08T08:23:30;25.83;;;16.75;;
43678;SDS011;29279;50.858;4.392;2023-04-08T08:26:06;25.77;;;15.38;;
43678;SDS011;29279;50.858;4.392;2023-04-08T08:28:36;30.75;;;16.10;;
43678;SDS011;29279;50.858;4.392;2023-04-08T08:31:02;27.70;;;16.52;;
43678;SDS011;29279;50.858;4.392;2023-04-08T08:33:29;31.48;;;16.58;;
43678;SDS011;29279;50.858;4.392;2023-04-08T08:35:56;32.97;;;16.60;;
43678;SDS011;29279;50.858;4.392;2023-04-08T08:38:22;38.65;;;18.63;;
43678;SDS011;29279;50.858;4.392;2023-04-08T08:40:55;31.10;;;16.60;;
43678;SDS011;29279;50.858;4.392;2023-04-08T08:43:24;27.55;;;15.52;;
43678;SDS011;29279;50.858;4.392;2023-04-08T08:45:51;30.60;;;15.48;;
43678;SDS011;29279;50.858;4.392;2023-04-08T08:48:17;25.40;;;16.48;;
43678;SDS011;29279;50.858;4.392;2023-04-08T08:50:43;30.50;;;16.88;;
43678;SDS011;29279;50.858;4.392;2023-04-08T08:53:09;27.05;;;16.83;;
43678;SDS011;29279;50.858;4.392;2023-04-08T08:55:35;26.02;;;15.75;;
43678;SDS011;29279;50.858;4.392;2023-04-08T08:58:03;34.55;;;15.60;;
43678;SDS011;29279;50.858;4.392;2023-04-08T09:00:33;28.55;;;14.27;;
43678;SDS011;29279;50.858;4.392;2023-04-08T09:03:19;23.00;;;13.45;;
43678;SDS011;29279;50.858;4.392;2023-04-08T09:11:15;37.80;;;15.82;;
43678;SDS011;29279;50.858;4.392;2023-04-08T09:13:47;24.20;;;15.95;;
43678;SDS011;29279;50.858;4.392;2023-04-08T09:16:14;35.97;;;15.85;;
43678;SDS011;29279;50.858;4.392;2023-04-08T09:18:42;24.13;;;15.38;;
43678;SDS011;29279;50.858;4.392;2023-04-08T09:21:13;29.02;;;15.75;;
43678;SDS011;29279;50.858;4.392;2023-04-08T09:28:40;29.65;;;15.20;;
43678;SDS011;29279;50.858;4.392;2023-04-08T09:31:23;31.20;;;16.20;;
43678;SDS011;29279;50.858;4.392;2023-04-08T09:33:56;36.03;;;16.92;;
43678;SDS011;29279;50.858;4.392;2023-04-08T09:36:24;28.23;;;17.05;;
43678;SDS011;29279;50.858;4.392;2023-04-08T09:38:51;33.42;;;15.93;;
43678;SDS011;29279;50.858;4.392;2023-04-08T09:41:18;30.83;;;17.77;;
43678;SDS011;29279;50.858;4.392;2023-04-08T09:43:49;34.13;;;16.83;;
43678;SDS011;29279;50.858;4.392;2023-04-08T09:46:25;19.88;;;11.93;;
43678;SDS011;29279;50.858;4.392;2023-04-08T09:54:17;27.33;;;15.00;;
43678;SDS011;29279;50.858;4.392;2023-04-08T09:56:53;26.30;;;16.00;;
43678;SDS011;29279;50.858;4.392;2023-04-08T09:59:34;24.80;;;14.02;;
43678;SDS011;29279;50.858;4.392;2023-04-08T10:02:04;33.92;;;13.35;;
43678;SDS011;29279;50.858;4.392;2023-04-08T10:04:34;32.33;;;13.82;;
43678;SDS011;29279;50.858;4.392;2023-04-08T10:07:03;22.42;;;10.95;;
43678;SDS011;29279;50.858;4.392;2023-04-08T10:09:31;29.95;;;14.93;;
43678;SDS011;29279;50.858;4.392;2023-04-08T10:11:58;22.67;;;13.25;;
43678;SDS011;29279;50.858;4.392;2023-04-08T10:14:25;23.98;;;13.50;;
43678;SDS011;29279;50.858;4.392;2023-04-08T10:17:37;24.10;;;15.07;;
43678;SDS011;29279;50.858;4.392;2023-04-08T10:19:56;21.17;;;15.27;;
43678;SDS011;29279;50.858;4.392;2023-04-08T10:27:41;18.20;;;11.68;;
43678;SDS011;29279;50.858;4.392;2023-04-08T10:32:56;30.75;;;16.50;;
43678;SDS011;29279;50.858;4.392;2023-04-08T10:35:32;22.17;;;12.70;;
43678;SDS011;29279;50.858;4.392;2023-04-08T10:38:00;22.38;;;12.23;;
43678;SDS011;29279;50.858;4.392;2023-04-08T10:40:26;15.75;;;11.57;;
43678;SDS011;29279;50.858;4.392;2023-04-08T10:42:55;21.67;;;13.48;;
43678;SDS011;29279;50.858;4.392;2023-04-08T10:45:21;19.88;;;10.88;;
43678;SDS011;29279;50.858;4.392;2023-04-08T10:47:47;18.95;;;7.78;;
43678;SDS011;29279;50.858;4.392;2023-04-08T10:50:19;16.63;;;8.93;;
43678;SDS011;29279;50.858;4.392;2023-04-08T10:52:51;16.98;;;10.55;;
43678;SDS011;29279;50.858;4.392;2023-04-08T10:55:22;16.30;;;9.35;;
43678;SDS011;29279;50.858;4.392;2023-04-08T10:57:51;20.63;;;12.18;;
43678;SDS011;29279;50.858;4.392;2023-04-08T11:00:17;24.10;;;13.15;;
43678;SDS011;29279;50.858;4.392;2023-04-08T11:03:06;21.75;;;13.23;;
43678;SDS011;29279;50.858;4.392;2023-04-08T11:05:33;23.95;;;15.00;;
43678;SDS011;29279;50.858;4.392;2023-04-08T11:08:01;22.65;;;14.05;;
43678;SDS011;29279;50.858;4.392;2023-04-08T11:10:27;27.05;;;15.18;;
43678;SDS011;29279;50.858;4.392;2023-04-08T11:12:53;19.05;;;14.18;;
43678;SDS011;29279;50.858;4.392;2023-04-08T11:15:20;22.45;;;14.55;;
43678;SDS011;29279;50.858;4.392;2023-04-08T11:17:46;25.83;;;14.20;;
43678;SDS011;29279;50.858;4.392;2023-04-08T11:20:13;22.67;;;12.10;;
43678;SDS011;29279;50.858;4.392;2023-04-08T11:22:39;19.92;;;12.30;;
43678;SDS011;29279;50.858;4.392;2023-04-08T11:25:06;19.23;;;12.07;;
43678;SDS011;29279;50.858;4.392;2023-04-08T11:27:34;24.60;;;12.77;;
43678;SDS011;29279;50.858;4.392;2023-04-08T11:30:00;25.55;;;12.07;;
43678;SDS011;29279;50.858;4.392;2023-04-08T11:32:27;24.27;;;10.48;;
43678;SDS011;29279;50.858;4.392;2023-04-08T11:34:53;25.83;;;11.73;;
43678;SDS011;29279;50.858;4.392;2023-04-08T11:37:19;23.05;;;12.15;;
43678;SDS011;29279;50.858;4.392;2023-04-08T11:39:46;22.80;;;13.52;;
43678;SDS011;29279;50.858;4.392;2023-04-08T11:42:31;23.92;;;12.90;;
43678;SDS011;29279;50.858;4.392;2023-04-08T11:44:57;24.15;;;15.00;;
43678;SDS011;29279;50.858;4.392;2023-04-08T11:47:30;23.00;;;15.35;;
43678;SDS011;29279;50.858;4.392;2023-04-08T11:49:57;23.20;;;16.40;;
43678;SDS011;29279;50.858;4.392;2023-04-08T11:52:39;26.50;;;16.63;;
43678;SDS011;29279;50.858;4.392;2023-04-08T11:55:25;27.38;;;16.20;;
43678;SDS011;29279;50.858;4.392;2023-04-08T11:57:52;27.23;;;16.98;;
43678;SDS011;29279;50.858;4.392;2023-04-08T12:00:19;29.23;;;16.52;;
43678;SDS011;29279;50.858;4.392;2023-04-08T12:02:45;28.48;;;16.88;;
43678;SDS011;29279;50.858;4.392;2023-04-08T12:05:12;27.45;;;16.67;;
43678;SDS011;29279;50.858;4.392;2023-04-08T12:07:38;24.45;;;16.27;;
43678;SDS011;29279;50.858;4.392;2023-04-08T12:10:04;28.25;;;17.27;;
43678;SDS011;29279;50.858;4.392;2023-04-08T12:12:30;26.00;;;17.15;;
43678;SDS011;29279;50.858;4.392;2023-04-08T12:14:56;29.60;;;17.77;;
43678;SDS011;29279;50.858;4.392;2023-04-08T12:17:22;34.42;;;18.50;;
43678;SDS011;29279;50.858;4.392;2023-04-08T12:19:47;33.22;;;19.88;;
43678;SDS011;29279;50.858;4.392;2023-04-08T12:22:13;30.63;;;19.25;;
43678;SDS011;29279;50.858;4.392;2023-04-08T12:24:40;26.10;;;17.13;;
43678;SDS011;29279;50.858;4.392;2023-04-08T12:27:06;29.23;;;17.92;;
43678;SDS011;29279;50.858;4.392;2023-04-08T12:29:31;27.27;;;17.50;;
43678;SDS011;29279;50.858;4.392;2023-04-08T12:31:57;33.05;;;16.80;;
43678;SDS011;29279;50.858;4.392;2023-04-08T12:34:23;26.20;;;17.08;;
43678;SDS011;29279;50.858;4.392;2023-04-08T12:36:49;28.10;;;17.15;;
43678;SDS011;29279;50.858;4.392;2023-04-08T12:39:15;27.25;;;17.20;;
43678;SDS011;29279;50.858;4.392;2023-04-08T12:41:41;24.30;;;15.13;;
43678;SDS011;29279;50.858;4.392;2023-04-08T12:44:07;27.23;;;16.08;;
43678;SDS011;29279;50.858;4.392;2023-04-08T12:46:32;21.00;;;15.98;;
43678;SDS011;29279;50.858;4.392;2023-04-08T12:48:58;22.92;;;13.07;;
43678;SDS011;29279;50.858;4.392;2023-04-08T12:51:24;18.88;;;12.73;;
43678;SDS011;29279;50.858;4.392;2023-04-08T12:53:50;20.58;;;13.38;;
43678;SDS011;29279;50.858;4.392;2023-04-08T12:56:19;22.75;;;13.88;;
43678;SDS011;29279;50.858;4.392;2023-04-08T12:58:47;19.98;;;12.90;;
43678;SDS011;29279;50.858;4.392;2023-04-08T13:01:13;22.45;;;13.25;;
43678;SDS011;29279;50.858;4.392;2023-04-08T13:03:38;16.48;;;12.23;;
43678;SDS011;29279;50.858;4.392;2023-04-08T13:06:06;25.13;;;13.30;;
43678;SDS011;29279;50.858;4.392;2023-04-08T13:08:31;18.58;;;12.80;;
43678;SDS011;29279;50.858;4.392;2023-04-08T13:10:57;20.70;;;13.57;;
43678;SDS011;29279;50.858;4.392;2023-04-08T13:13:23;19.58;;;11.95;;
43678;SDS011;29279;50.858;4.392;2023-04-08T13:15:49;19.98;;;12.88;;
43678;SDS011;29279;50.858;4.392;2023-04-08T13:18:14;18.35;;;12.32;;
43678;SDS011;29279;50.858;4.392;2023-04-08T13:20:41;24.15;;;13.55;;
43678;SDS011;29279;50.858;4.392;2023-04-08T13:23:06;19.58;;;12.60;;
43678;SDS011;29279;50.858;4.392;2023-04-08T13:25:32;17.02;;;12.02;;
43678;SDS011;29279;50.858;4.392;2023-04-08T13:27:57;24.88;;;13.10;;
43678;SDS011;29279;50.858;4.392;2023-04-08T13:30:23;23.08;;;13.63;;
43678;SDS011;29279;50.858;4.392;2023-04-08T13:32:49;18.05;;;13.00;;
43678;SDS011;29279;50.858;4.392;2023-04-08T13:35:15;17.50;;;12.18;;
43678;SDS011;29279;50.858;4.392;2023-04-08T13:37:40;19.83;;;12.73;;
43678;SDS011;29279;50.858;4.392;2023-04-08T13:40:06;19.92;;;13.15;;
43678;SDS011;29279;50.858;4.392;2023-04-08T13:42:32;16.58;;;12.55;;
43678;SDS011;29279;50.858;4.392;2023-04-08T13:44:58;18.48;;;12.25;;
43678;SDS011;29279;50.858;4.392;2023-04-08T13:47:24;16.90;;;12.00;;
43678;SDS011;29279;50.858;4.392;2023-04-08T13:49:51;19.08;;;12.70;;
43678;SDS011;29279;50.858;4.392;2023-04-08T13:52:17;18.58;;;12.43;;
43678;SDS011;29279;50.858;4.392;2023-04-08T13:54:43;18.58;;;12.40;;
43678;SDS011;29279;50.858;4.392;2023-04-08T13:57:09;21.80;;;12.43;;
43678;SDS011;29279;50.858;4.392;2023-04-08T13:59:34;19.20;;;12.60;;
43678;SDS011;29279;50.858;4.392;2023-04-08T14:02:00;18.70;;;13.88;;
43678;SDS011;29279;50.858;4.392;2023-04-08T14:04:26;21.65;;;12.75;;
43678;SDS011;29279;50.858;4.392;2023-04-08T14:06:52;17.92;;;12.27;;
43678;SDS011;29279;50.858;4.392;2023-04-08T14:09:18;20.05;;;12.25;;
43678;SDS011;29279;50.858;4.392;2023-04-08T14:11:44;21.48;;;12.43;;
43678;SDS011;29279;50.858;4.392;2023-04-08T14:14:11;16.75;;;12.27;;
43678;SDS011;29279;50.858;4.392;2023-04-08T14:16:37;21.20;;;12.45;;
43678;SDS011;29279;50.858;4.392;2023-04-08T14:19:03;19.73;;;12.85;;
43678;SDS011;29279;50.858;4.392;2023-04-08T14:21:29;24.73;;;14.55;;
43678;SDS011;29279;50.858;4.392;2023-04-08T14:23:58;21.48;;;14.50;;
43678;SDS011;29279;50.858;4.392;2023-04-08T14:26:24;22.52;;;14.98;;
43678;SDS011;29279;50.858;4.392;2023-04-08T14:28:49;22.73;;;14.57;;
43678;SDS011;29279;50.858;4.392;2023-04-08T14:31:15;21.35;;;14.35;;
43678;SDS011;29279;50.858;4.392;2023-04-08T14:33:41;24.20;;;14.70;;
43678;SDS011;29279;50.858;4.392;2023-04-08T14:36:07;23.73;;;15.40;;
43678;SDS011;29279;50.858;4.392;2023-04-08T14:38:33;25.88;;;15.32;;
43678;SDS011;29279;50.858;4.392;2023-04-08T14:40:59;23.67;;;15.65;;
43678;SDS011;29279;50.858;4.392;2023-04-08T14:43:25;22.48;;;14.80;;
43678;SDS011;29279;50.858;4.392;2023-04-08T14:45:51;25.38;;;15.27;;
43678;SDS011;29279;50.858;4.392;2023-04-08T14:48:17;22.75;;;15.90;;
43678;SDS011;29279;50.858;4.392;2023-04-08T14:50:43;24.60;;;16.38;;
43678;SDS011;29279;50.858;4.392;2023-04-08T14:53:10;24.38;;;16.25;;
43678;SDS011;29279;50.858;4.392;2023-04-08T14:55:35;25.45;;;17.17;;